sensor_id;sensor_type;location;lat;lon;timestamp;temperature;humidity
11812;DHT22;5963;50.184;9.162;2023-06-14T00:01:15;16.90;81.60
11812;DHT22;5963;50.184;9.162;2023-06-14T00:03:45;16.90;81.40
11812;DHT22;5963;50.184;9.162;2023-06-14T00:06:16;17.00;81.40
11812;DHT22;5963;50.184;9.162;2023-06-14T00:08:45;16.90;81.70
11812;DHT22;5963;50.184;9.162;2023-06-14T00:11:17;16.80;81.80
11812;DHT22;5963;50.184;9.162;2023-06-14T00:13:46;16.80;82.20
11812;DHT22;5963;50.184;9.162;2023-06-14T00:16:16;16.70;82.40
11812;DHT22;5963;50.184;9.162;2023-06-14T00:18:47;16.70;82.80
11812;DHT22;5963;50.184;9.162;2023-06-14T00:21:17;16.50;83.00
11812;DHT22;5963;50.184;9.162;2023-06-14T00:23:48;16.40;83.60
11812;DHT22;5963;50.184;9.162;2023-06-14T00:26:23;16.40;83.90
11812;DHT22;5963;50.184;9.162;2023-06-14T00:28:55;16.40;83.80
11812;DHT22;5963;50.184;9.162;2023-06-14T00:31:25;16.30;84.20
11812;DHT22;5963;50.184;9.162;2023-06-14T00:33:55;16.20;84.50
11812;DHT22;5963;50.184;9.162;2023-06-14T00:36:25;16.10;85.10
11812;DHT22;5963;50.184;9.162;2023-06-14T00:38:55;16.10;84.70
11812;DHT22;5963;50.184;9.162;2023-06-14T00:41:26;16.10;85.10
11812;DHT22;5963;50.184;9.162;2023-06-14T00:43:56;16.10;84.70
11812;DHT22;5963;50.184;9.162;2023-06-14T00:46:27;16.10;85.40
11812;DHT22;5963;50.184;9.162;2023-06-14T00:48:57;15.90;85.60
11812;DHT22;5963;50.184;9.162;2023-06-14T00:51:28;15.90;85.90
11812;DHT22;5963;50.184;9.162;2023-06-14T00:53:58;15.90;86.40
11812;DHT22;5963;50.184;9.162;2023-06-14T00:56:29;15.90;86.40
11812;DHT22;5963;50.184;9.162;2023-06-14T00:58:59;15.90;86.80
11812;DHT22;5963;50.184;9.162;2023-06-14T01:01:30;15.80;86.30
11812;DHT22;5963;50.184;9.162;2023-06-14T01:04:01;15.80;86.70
11812;DHT22;5963;50.184;9.162;2023-06-14T01:06:37;15.90;86.80
11812;DHT22;5963;50.184;9.162;2023-06-14T01:09:31;15.70;86.90
11812;DHT22;5963;50.184;9.162;2023-06-14T01:12:11;15.70;87.30
11812;DHT22;5963;50.184;9.162;2023-06-14T01:14:43;15.60;87.60
11812;DHT22;5963;50.184;9.162;2023-06-14T01:17:14;15.70;87.60
11812;DHT22;5963;50.184;9.162;2023-06-14T01:19:46;15.80;87.70
11812;DHT22;5963;50.184;9.162;2023-06-14T01:22:16;15.70;87.70
11812;DHT22;5963;50.184;9.162;2023-06-14T01:24:47;15.60;87.90
11812;DHT22;5963;50.184;9.162;2023-06-14T01:27:17;15.60;88.00
11812;DHT22;5963;50.184;9.162;2023-06-14T01:29:49;15.60;87.70
11812;DHT22;5963;50.184;9.162;2023-06-14T01:32:20;15.60;88.00
11812;DHT22;5963;50.184;9.162;2023-06-14T01:34:50;15.50;88.20
11812;DHT22;5963;50.184;9.162;2023-06-14T01:37:19;15.50;88.20
11812;DHT22;5963;50.184;9.162;2023-06-14T01:39:50;15.40;88.60
11812;DHT22;5963;50.184;9.162;2023-06-14T01:42:21;15.40;89.00
11812;DHT22;5963;50.184;9.162;2023-06-14T01:44:52;15.40;88.80
11812;DHT22;5963;50.184;9.162;2023-06-14T01:47:23;15.40;88.90
11812;DHT22;5963;50.184;9.162;2023-06-14T01:49:53;15.30;88.80
11812;DHT22;5963;50.184;9.162;2023-06-14T01:52:23;15.30;89.20
11812;DHT22;5963;50.184;9.162;2023-06-14T01:54:54;15.30;89.50
11812;DHT22;5963;50.184;9.162;2023-06-14T01:57:24;15.20;90.00
11812;DHT22;5963;50.184;9.162;2023-06-14T01:59:55;15.20;89.80
11812;DHT22;5963;50.184;9.162;2023-06-14T02:02:25;15.20;89.80
11812;DHT22;5963;50.184;9.162;2023-06-14T02:04:54;15.30;90.00
11812;DHT22;5963;50.184;9.162;2023-06-14T02:07:25;15.30;89.90
11812;DHT22;5963;50.184;9.162;2023-06-14T02:09:57;15.20;90.10
11812;DHT22;5963;50.184;9.162;2023-06-14T02:12:26;15.20;90.10
11812;DHT22;5963;50.184;9.162;2023-06-14T02:14:56;15.10;90.30
11812;DHT22;5963;50.184;9.162;2023-06-14T02:17:26;15.10;90.30
11812;DHT22;5963;50.184;9.162;2023-06-14T02:19:56;15.00;90.50
11812;DHT22;5963;50.184;9.162;2023-06-14T02:22:26;15.00;90.70
11812;DHT22;5963;50.184;9.162;2023-06-14T02:24:57;15.00;90.80
11812;DHT22;5963;50.184;9.162;2023-06-14T02:27:30;14.90;90.80
11812;DHT22;5963;50.184;9.162;2023-06-14T02:30:00;15.00;91.00
11812;DHT22;5963;50.184;9.162;2023-06-14T02:32:30;14.90;91.00
11812;DHT22;5963;50.184;9.162;2023-06-14T02:35:00;14.90;91.10
11812;DHT22;5963;50.184;9.162;2023-06-14T02:37:29;14.90;91.20
11812;DHT22;5963;50.184;9.162;2023-06-14T02:40:01;14.80;91.40
11812;DHT22;5963;50.184;9.162;2023-06-14T02:42:31;14.90;91.60
11812;DHT22;5963;50.184;9.162;2023-06-14T02:45:00;14.90;91.50
11812;DHT22;5963;50.184;9.162;2023-06-14T02:47:31;14.70;91.80
11812;DHT22;5963;50.184;9.162;2023-06-14T02:50:00;14.70;92.00
11812;DHT22;5963;50.184;9.162;2023-06-14T02:52:30;14.70;92.20
11812;DHT22;5963;50.184;9.162;2023-06-14T02:55:03;14.60;92.50
11812;DHT22;5963;50.184;9.162;2023-06-14T02:57:33;14.50;92.80
11812;DHT22;5963;50.184;9.162;2023-06-14T03:00:02;14.50;93.00
11812;DHT22;5963;50.184;9.162;2023-06-14T03:02:32;14.50;93.10
11812;DHT22;5963;50.184;9.162;2023-06-14T03:05:02;14.50;93.10
11812;DHT22;5963;50.184;9.162;2023-06-14T03:07:33;14.50;93.20
11812;DHT22;5963;50.184;9.162;2023-06-14T03:10:05;14.50;93.40
11812;DHT22;5963;50.184;9.162;2023-06-14T03:12:35;14.50;93.30
11812;DHT22;5963;50.184;9.162;2023-06-14T03:15:07;14.70;93.40
11812;DHT22;5963;50.184;9.162;2023-06-14T03:17:37;14.50;93.50
11812;DHT22;5963;50.184;9.162;2023-06-14T03:20:07;14.50;93.80
11812;DHT22;5963;50.184;9.162;2023-06-14T03:22:37;14.40;94.10
11812;DHT22;5963;50.184;9.162;2023-06-14T03:25:10;14.40;94.20
11812;DHT22;5963;50.184;9.162;2023-06-14T03:27:41;14.60;94.20
11812;DHT22;5963;50.184;9.162;2023-06-14T03:30:15;14.60;94.30
11812;DHT22;5963;50.184;9.162;2023-06-14T03:32:46;14.60;94.60
11812;DHT22;5963;50.184;9.162;2023-06-14T03:35:16;14.70;94.60
11812;DHT22;5963;50.184;9.162;2023-06-14T03:37:47;14.50;95.00
11812;DHT22;5963;50.184;9.162;2023-06-14T03:40:20;14.40;95.30
11812;DHT22;5963;50.184;9.162;2023-06-14T03:42:50;14.40;95.80
11812;DHT22;5963;50.184;9.162;2023-06-14T03:45:19;14.30;95.80
11812;DHT22;5963;50.184;9.162;2023-06-14T03:47:49;14.40;96.20
11812;DHT22;5963;50.184;9.162;2023-06-14T03:50:20;14.40;96.10
11812;DHT22;5963;50.184;9.162;2023-06-14T03:52:57;14.40;96.50
11812;DHT22;5963;50.184;9.162;2023-06-14T03:55:28;14.30;96.60
11812;DHT22;5963;50.184;9.162;2023-06-14T03:58:02;14.30;96.80
11812;DHT22;5963;50.184;9.162;2023-06-14T04:00:32;14.40;97.20
11812;DHT22;5963;50.184;9.162;2023-06-14T04:03:02;14.40;97.30
11812;DHT22;5963;50.184;9.162;2023-06-14T04:05:35;14.50;98.30
11812;DHT22;5963;50.184;9.162;2023-06-14T04:08:06;14.50;98.00
11812;DHT22;5963;50.184;9.162;2023-06-14T04:10:38;14.50;98.20
11812;DHT22;5963;50.184;9.162;2023-06-14T04:13:08;14.40;98.20
11812;DHT22;5963;50.184;9.162;2023-06-14T04:15:41;14.50;98.60
11812;DHT22;5963;50.184;9.162;2023-06-14T04:18:12;14.50;98.90
11812;DHT22;5963;50.184;9.162;2023-06-14T04:20:42;14.50;98.80
11812;DHT22;5963;50.184;9.162;2023-06-14T04:23:15;14.70;98.70
11812;DHT22;5963;50.184;9.162;2023-06-14T04:25:47;14.60;98.40
11812;DHT22;5963;50.184;9.162;2023-06-14T04:28:17;14.60;99.40
11812;DHT22;5963;50.184;9.162;2023-06-14T04:30:48;14.70;99.60
11812;DHT22;5963;50.184;9.162;2023-06-14T04:33:18;14.80;99.10
11812;DHT22;5963;50.184;9.162;2023-06-14T04:35:48;14.90;99.60
11812;DHT22;5963;50.184;9.162;2023-06-14T04:38:17;15.10;99.40
11812;DHT22;5963;50.184;9.162;2023-06-14T04:40:48;16.10;97.40
11812;DHT22;5963;50.184;9.162;2023-06-14T04:43:21;16.70;95.00
11812;DHT22;5963;50.184;9.162;2023-06-14T04:45:56;17.50;93.50
11812;DHT22;5963;50.184;9.162;2023-06-14T04:48:26;18.50;92.20
11812;DHT22;5963;50.184;9.162;2023-06-14T04:50:56;18.00;91.60
11812;DHT22;5963;50.184;9.162;2023-06-14T04:53:26;18.60;91.30
11812;DHT22;5963;50.184;9.162;2023-06-14T04:56:01;19.70;89.70
11812;DHT22;5963;50.184;9.162;2023-06-14T04:58:32;19.90;89.00
11812;DHT22;5963;50.184;9.162;2023-06-14T05:01:02;20.00;87.90
11812;DHT22;5963;50.184;9.162;2023-06-14T05:03:33;21.20;85.80
11812;DHT22;5963;50.184;9.162;2023-06-14T05:06:03;22.30;82.30
11812;DHT22;5963;50.184;9.162;2023-06-14T05:08:35;21.90;82.60
11812;DHT22;5963;50.184;9.162;2023-06-14T05:11:06;21.70;82.00
11812;DHT22;5963;50.184;9.162;2023-06-14T05:13:36;22.00;82.30
11812;DHT22;5963;50.184;9.162;2023-06-14T05:16:06;21.90;81.70
11812;DHT22;5963;50.184;9.162;2023-06-14T05:18:36;21.00;82.90
11812;DHT22;5963;50.184;9.162;2023-06-14T05:21:06;19.80;85.30
11812;DHT22;5963;50.184;9.162;2023-06-14T05:23:37;19.70;86.20
11812;DHT22;5963;50.184;9.162;2023-06-14T05:26:08;21.10;84.50
11812;DHT22;5963;50.184;9.162;2023-06-14T05:28:38;20.80;84.20
11812;DHT22;5963;50.184;9.162;2023-06-14T05:31:08;20.90;84.70
11812;DHT22;5963;50.184;9.162;2023-06-14T05:33:38;20.10;85.30
11812;DHT22;5963;50.184;9.162;2023-06-14T05:36:08;20.30;85.80
11812;DHT22;5963;50.184;9.162;2023-06-14T05:38:38;20.50;84.90
11812;DHT22;5963;50.184;9.162;2023-06-14T05:41:09;19.80;86.10
11812;DHT22;5963;50.184;9.162;2023-06-14T05:43:39;19.40;86.90
11812;DHT22;5963;50.184;9.162;2023-06-14T05:46:11;20.00;86.40
11812;DHT22;5963;50.184;9.162;2023-06-14T05:48:43;19.40;88.20
11812;DHT22;5963;50.184;9.162;2023-06-14T05:51:13;21.10;85.60
11812;DHT22;5963;50.184;9.162;2023-06-14T05:53:43;22.40;83.40
11812;DHT22;5963;50.184;9.162;2023-06-14T05:56:15;21.90;82.20
11812;DHT22;5963;50.184;9.162;2023-06-14T05:58:46;21.00;84.10
11812;DHT22;5963;50.184;9.162;2023-06-14T06:01:16;20.00;85.60
11812;DHT22;5963;50.184;9.162;2023-06-14T06:03:46;19.90;86.40
11812;DHT22;5963;50.184;9.162;2023-06-14T06:06:16;19.80;85.90
11812;DHT22;5963;50.184;9.162;2023-06-14T06:08:47;19.80;87.30
11812;DHT22;5963;50.184;9.162;2023-06-14T06:11:18;20.50;85.60
11812;DHT22;5963;50.184;9.162;2023-06-14T06:13:48;21.00;84.60
11812;DHT22;5963;50.184;9.162;2023-06-14T06:16:16;21.70;83.20
11812;DHT22;5963;50.184;9.162;2023-06-14T06:18:46;20.60;84.40
11812;DHT22;5963;50.184;9.162;2023-06-14T06:21:16;20.30;85.60
11812;DHT22;5963;50.184;9.162;2023-06-14T06:23:46;20.40;85.40
11812;DHT22;5963;50.184;9.162;2023-06-14T06:26:18;21.10;84.80
11812;DHT22;5963;50.184;9.162;2023-06-14T06:28:48;21.50;84.30
11812;DHT22;5963;50.184;9.162;2023-06-14T06:31:18;22.10;82.20
11812;DHT22;5963;50.184;9.162;2023-06-14T06:33:50;21.40;82.60
11812;DHT22;5963;50.184;9.162;2023-06-14T06:36:18;21.10;84.40
11812;DHT22;5963;50.184;9.162;2023-06-14T06:38:48;20.60;84.90
11812;DHT22;5963;50.184;9.162;2023-06-14T06:41:20;20.40;85.10
11812;DHT22;5963;50.184;9.162;2023-06-14T06:43:50;20.10;85.70
11812;DHT22;5963;50.184;9.162;2023-06-14T06:46:20;20.40;85.40
11812;DHT22;5963;50.184;9.162;2023-06-14T06:48:50;20.40;84.50
11812;DHT22;5963;50.184;9.162;2023-06-14T06:51:20;20.10;85.80
11812;DHT22;5963;50.184;9.162;2023-06-14T06:53:53;19.80;87.00
11812;DHT22;5963;50.184;9.162;2023-06-14T06:56:25;19.60;86.40
11812;DHT22;5963;50.184;9.162;2023-06-14T06:58:55;19.50;87.00
11812;DHT22;5963;50.184;9.162;2023-06-14T07:01:25;19.70;87.30
11812;DHT22;5963;50.184;9.162;2023-06-14T07:03:57;19.50;87.70
11812;DHT22;5963;50.184;9.162;2023-06-14T07:06:27;19.80;86.90
11812;DHT22;5963;50.184;9.162;2023-06-14T07:08:57;19.60;87.50
11812;DHT22;5963;50.184;9.162;2023-06-14T07:11:31;19.30;87.70
11812;DHT22;5963;50.184;9.162;2023-06-14T07:14:01;19.40;88.70
11812;DHT22;5963;50.184;9.162;2023-06-14T07:16:31;19.80;87.90
11812;DHT22;5963;50.184;9.162;2023-06-14T07:19:01;19.50;88.10
11812;DHT22;5963;50.184;9.162;2023-06-14T07:21:31;19.80;87.80
11812;DHT22;5963;50.184;9.162;2023-06-14T07:24:02;20.40;87.10
11812;DHT22;5963;50.184;9.162;2023-06-14T07:26:34;20.60;86.20
11812;DHT22;5963;50.184;9.162;2023-06-14T07:29:04;20.70;85.80
11812;DHT22;5963;50.184;9.162;2023-06-14T07:31:34;20.10;87.10
11812;DHT22;5963;50.184;9.162;2023-06-14T07:34:04;20.50;86.80
11812;DHT22;5963;50.184;9.162;2023-06-14T07:36:34;20.60;86.80
11812;DHT22;5963;50.184;9.162;2023-06-14T07:39:05;20.70;86.90
11812;DHT22;5963;50.184;9.162;2023-06-14T07:41:36;21.00;85.60
11812;DHT22;5963;50.184;9.162;2023-06-14T07:44:06;21.10;85.60
11812;DHT22;5963;50.184;9.162;2023-06-14T07:46:36;21.00;86.60
11812;DHT22;5963;50.184;9.162;2023-06-14T07:49:06;21.00;87.30
11812;DHT22;5963;50.184;9.162;2023-06-14T07:51:38;21.00;87.20
11812;DHT22;5963;50.184;9.162;2023-06-14T07:54:08;21.10;86.70
11812;DHT22;5963;50.184;9.162;2023-06-14T07:56:39;21.40;86.20
11812;DHT22;5963;50.184;9.162;2023-06-14T07:59:12;21.60;85.80
11812;DHT22;5963;50.184;9.162;2023-06-14T08:01:42;21.40;87.60
11812;DHT22;5963;50.184;9.162;2023-06-14T08:04:15;21.90;85.80
11812;DHT22;5963;50.184;9.162;2023-06-14T08:06:45;22.20;85.80
11812;DHT22;5963;50.184;9.162;2023-06-14T08:09:16;22.40;84.40
11812;DHT22;5963;50.184;9.162;2023-06-14T08:11:48;22.60;85.40
11812;DHT22;5963;50.184;9.162;2023-06-14T08:14:18;22.60;83.80
11812;DHT22;5963;50.184;9.162;2023-06-14T08:16:47;22.50;84.20
11812;DHT22;5963;50.184;9.162;2023-06-14T08:19:18;22.40;83.80
11812;DHT22;5963;50.184;9.162;2023-06-14T08:21:48;22.60;84.90
11812;DHT22;5963;50.184;9.162;2023-06-14T08:24:19;22.30;85.10
11812;DHT22;5963;50.184;9.162;2023-06-14T08:26:54;22.50;84.40
11812;DHT22;5963;50.184;9.162;2023-06-14T08:29:24;22.50;84.20
11812;DHT22;5963;50.184;9.162;2023-06-14T08:31:58;22.70;85.30
11812;DHT22;5963;50.184;9.162;2023-06-14T08:34:28;22.80;85.20
11812;DHT22;5963;50.184;9.162;2023-06-14T08:37:00;23.20;85.00
11812;DHT22;5963;50.184;9.162;2023-06-14T08:39:30;23.10;83.90
11812;DHT22;5963;50.184;9.162;2023-06-14T08:42:03;23.40;84.10
11812;DHT22;5963;50.184;9.162;2023-06-14T08:44:40;23.70;82.40
11812;DHT22;5963;50.184;9.162;2023-06-14T08:47:11;23.60;82.40
11812;DHT22;5963;50.184;9.162;2023-06-14T08:49:42;23.40;81.40
11812;DHT22;5963;50.184;9.162;2023-06-14T08:52:17;23.40;82.60
11812;DHT22;5963;50.184;9.162;2023-06-14T08:54:49;23.70;82.50
11812;DHT22;5963;50.184;9.162;2023-06-14T08:57:20;24.00;80.20
11812;DHT22;5963;50.184;9.162;2023-06-14T08:59:50;24.20;81.80
11812;DHT22;5963;50.184;9.162;2023-06-14T09:02:21;24.20;79.00
11812;DHT22;5963;50.184;9.162;2023-06-14T09:04:51;24.20;80.20
11812;DHT22;5963;50.184;9.162;2023-06-14T09:07:21;24.30;79.50
11812;DHT22;5963;50.184;9.162;2023-06-14T09:10:02;23.60;79.00
11812;DHT22;5963;50.184;9.162;2023-06-14T09:12:36;23.00;79.80
11812;DHT22;5963;50.184;9.162;2023-06-14T09:15:07;23.60;80.50
11812;DHT22;5963;50.184;9.162;2023-06-14T09:17:38;23.90;78.30
11812;DHT22;5963;50.184;9.162;2023-06-14T09:20:11;23.80;77.60
11812;DHT22;5963;50.184;9.162;2023-06-14T09:22:48;23.10;77.50
11812;DHT22;5963;50.184;9.162;2023-06-14T09:25:18;23.40;77.70
11812;DHT22;5963;50.184;9.162;2023-06-14T09:28:09;24.10;76.70
11812;DHT22;5963;50.184;9.162;2023-06-14T09:30:39;24.30;78.10
11812;DHT22;5963;50.184;9.162;2023-06-14T09:33:10;24.70;75.80
11812;DHT22;5963;50.184;9.162;2023-06-14T09:35:40;24.00;74.10
11812;DHT22;5963;50.184;9.162;2023-06-14T09:38:11;23.80;75.90
11812;DHT22;5963;50.184;9.162;2023-06-14T09:40:43;23.80;75.40
11812;DHT22;5963;50.184;9.162;2023-06-14T09:43:15;24.00;73.70
11812;DHT22;5963;50.184;9.162;2023-06-14T09:45:45;24.60;73.40
11812;DHT22;5963;50.184;9.162;2023-06-14T09:48:17;24.60;72.70
11812;DHT22;5963;50.184;9.162;2023-06-14T09:50:48;24.80;73.10
11812;DHT22;5963;50.184;9.162;2023-06-14T09:53:22;24.90;72.20
11812;DHT22;5963;50.184;9.162;2023-06-14T09:55:54;25.40;72.80
11812;DHT22;5963;50.184;9.162;2023-06-14T09:58:28;24.40;72.80
11812;DHT22;5963;50.184;9.162;2023-06-14T10:01:01;23.60;75.30
11812;DHT22;5963;50.184;9.162;2023-06-14T10:03:32;24.20;75.00
11812;DHT22;5963;50.184;9.162;2023-06-14T10:06:24;24.70;72.80
11812;DHT22;5963;50.184;9.162;2023-06-14T10:08:57;24.30;72.70
11812;DHT22;5963;50.184;9.162;2023-06-14T10:11:28;24.20;73.70
11812;DHT22;5963;50.184;9.162;2023-06-14T10:14:01;24.00;73.70
11812;DHT22;5963;50.184;9.162;2023-06-14T10:16:34;23.30;74.70
11812;DHT22;5963;50.184;9.162;2023-06-14T10:19:11;23.40;74.00
11812;DHT22;5963;50.184;9.162;2023-06-14T10:21:46;23.60;72.90
11812;DHT22;5963;50.184;9.162;2023-06-14T10:24:26;23.40;73.80
11812;DHT22;5963;50.184;9.162;2023-06-14T10:26:59;23.30;73.30
11812;DHT22;5963;50.184;9.162;2023-06-14T10:29:31;23.70;74.00
11812;DHT22;5963;50.184;9.162;2023-06-14T10:32:03;23.60;74.80
11812;DHT22;5963;50.184;9.162;2023-06-14T10:34:33;24.40;75.10
11812;DHT22;5963;50.184;9.162;2023-06-14T10:37:03;24.90;74.20
11812;DHT22;5963;50.184;9.162;2023-06-14T10:39:37;25.30;73.60
11812;DHT22;5963;50.184;9.162;2023-06-14T10:42:07;25.40;71.40
11812;DHT22;5963;50.184;9.162;2023-06-14T10:44:42;25.00;72.20
11812;DHT22;5963;50.184;9.162;2023-06-14T10:47:24;24.40;73.40
11812;DHT22;5963;50.184;9.162;2023-06-14T10:49:56;24.30;74.00
11812;DHT22;5963;50.184;9.162;2023-06-14T10:52:42;25.00;73.20
11812;DHT22;5963;50.184;9.162;2023-06-14T10:55:15;25.20;73.60
11812;DHT22;5963;50.184;9.162;2023-06-14T10:57:49;25.90;74.10
11812;DHT22;5963;50.184;9.162;2023-06-14T11:00:24;25.50;70.30
11812;DHT22;5963;50.184;9.162;2023-06-14T11:03:39;25.30;71.40
11812;DHT22;5963;50.184;9.162;2023-06-14T11:06:15;25.80;70.50
11812;DHT22;5963;50.184;9.162;2023-06-14T11:09:10;25.00;70.50
11812;DHT22;5963;50.184;9.162;2023-06-14T11:11:44;24.00;72.70
11812;DHT22;5963;50.184;9.162;2023-06-14T11:14:14;24.30;74.70
11812;DHT22;5963;50.184;9.162;2023-06-14T11:16:49;25.20;73.40
11812;DHT22;5963;50.184;9.162;2023-06-14T11:19:19;24.10;73.80
11812;DHT22;5963;50.184;9.162;2023-06-14T11:21:51;24.20;74.20
11812;DHT22;5963;50.184;9.162;2023-06-14T11:24:24;24.70;73.20
11812;DHT22;5963;50.184;9.162;2023-06-14T11:26:54;24.80;73.50
11812;DHT22;5963;50.184;9.162;2023-06-14T11:29:25;24.80;71.80
11812;DHT22;5963;50.184;9.162;2023-06-14T11:31:57;24.60;71.40
11812;DHT22;5963;50.184;9.162;2023-06-14T11:34:27;23.80;72.60
11812;DHT22;5963;50.184;9.162;2023-06-14T11:36:57;23.60;73.50
11812;DHT22;5963;50.184;9.162;2023-06-14T11:39:29;23.80;73.10
11812;DHT22;5963;50.184;9.162;2023-06-14T11:41:59;24.20;72.60
11812;DHT22;5963;50.184;9.162;2023-06-14T11:44:28;24.20;73.50
11812;DHT22;5963;50.184;9.162;2023-06-14T11:46:59;24.50;72.90
11812;DHT22;5963;50.184;9.162;2023-06-14T11:49:35;25.20;69.50
11812;DHT22;5963;50.184;9.162;2023-06-14T11:52:06;25.50;70.10
11812;DHT22;5963;50.184;9.162;2023-06-14T11:54:36;25.20;68.70
11812;DHT22;5963;50.184;9.162;2023-06-14T11:57:07;25.20;69.50
11812;DHT22;5963;50.184;9.162;2023-06-14T11:59:40;25.80;67.90
11812;DHT22;5963;50.184;9.162;2023-06-14T12:02:13;26.10;67.10
11812;DHT22;5963;50.184;9.162;2023-06-14T12:04:43;26.20;68.00
11812;DHT22;5963;50.184;9.162;2023-06-14T12:07:15;26.50;67.00
11812;DHT22;5963;50.184;9.162;2023-06-14T12:10:06;26.30;66.10
11812;DHT22;5963;50.184;9.162;2023-06-14T12:12:38;25.40;67.30
11812;DHT22;5963;50.184;9.162;2023-06-14T12:15:10;26.00;67.10
11812;DHT22;5963;50.184;9.162;2023-06-14T12:17:44;26.70;67.30
11812;DHT22;5963;50.184;9.162;2023-06-14T12:20:17;26.70;66.20
11812;DHT22;5963;50.184;9.162;2023-06-14T12:22:56;26.60;65.50
11812;DHT22;5963;50.184;9.162;2023-06-14T12:25:29;26.20;65.30
11812;DHT22;5963;50.184;9.162;2023-06-14T12:28:03;25.70;66.60
11812;DHT22;5963;50.184;9.162;2023-06-14T12:30:34;25.40;66.00
11812;DHT22;5963;50.184;9.162;2023-06-14T12:33:06;25.80;66.50
11812;DHT22;5963;50.184;9.162;2023-06-14T12:35:36;26.50;65.80
11812;DHT22;5963;50.184;9.162;2023-06-14T12:38:06;27.10;64.60
11812;DHT22;5963;50.184;9.162;2023-06-14T12:40:36;27.40;63.50
11812;DHT22;5963;50.184;9.162;2023-06-14T12:43:04;26.90;64.40
11812;DHT22;5963;50.184;9.162;2023-06-14T12:45:34;26.90;63.70
11812;DHT22;5963;50.184;9.162;2023-06-14T12:48:06;26.80;63.60
11812;DHT22;5963;50.184;9.162;2023-06-14T12:50:37;26.60;64.90
11812;DHT22;5963;50.184;9.162;2023-06-14T12:53:07;26.00;65.30
11812;DHT22;5963;50.184;9.162;2023-06-14T12:55:37;25.10;66.60
11812;DHT22;5963;50.184;9.162;2023-06-14T12:58:07;25.00;66.70
11812;DHT22;5963;50.184;9.162;2023-06-14T13:00:38;25.00;67.90
11812;DHT22;5963;50.184;9.162;2023-06-14T13:03:10;25.50;66.40
11812;DHT22;5963;50.184;9.162;2023-06-14T13:05:40;25.70;67.10
11812;DHT22;5963;50.184;9.162;2023-06-14T13:08:11;25.90;67.00
11812;DHT22;5963;50.184;9.162;2023-06-14T13:10:43;25.70;66.40
11812;DHT22;5963;50.184;9.162;2023-06-14T13:13:12;25.80;66.40
11812;DHT22;5963;50.184;9.162;2023-06-14T13:15:42;25.20;67.70
11812;DHT22;5963;50.184;9.162;2023-06-14T13:18:15;25.30;66.90
11812;DHT22;5963;50.184;9.162;2023-06-14T13:20:47;25.40;67.70
11812;DHT22;5963;50.184;9.162;2023-06-14T13:23:17;25.20;69.80
11812;DHT22;5963;50.184;9.162;2023-06-14T13:25:47;25.50;68.50
11812;DHT22;5963;50.184;9.162;2023-06-14T13:28:19;25.60;68.30
11812;DHT22;5963;50.184;9.162;2023-06-14T13:30:49;25.70;69.00
11812;DHT22;5963;50.184;9.162;2023-06-14T13:33:21;25.80;70.40
11812;DHT22;5963;50.184;9.162;2023-06-14T13:35:52;25.80;68.10
11812;DHT22;5963;50.184;9.162;2023-06-14T13:38:22;25.60;68.00
11812;DHT22;5963;50.184;9.162;2023-06-14T13:40:53;25.80;68.70
11812;DHT22;5963;50.184;9.162;2023-06-14T13:43:24;25.80;68.40
11812;DHT22;5963;50.184;9.162;2023-06-14T13:45:54;25.30;69.60
11812;DHT22;5963;50.184;9.162;2023-06-14T13:48:25;25.00;69.30
11812;DHT22;5963;50.184;9.162;2023-06-14T13:50:55;25.40;67.70
11812;DHT22;5963;50.184;9.162;2023-06-14T13:53:27;26.00;69.30
11812;DHT22;5963;50.184;9.162;2023-06-14T13:55:57;26.60;68.40
11812;DHT22;5963;50.184;9.162;2023-06-14T13:58:27;26.60;68.30
11812;DHT22;5963;50.184;9.162;2023-06-14T14:00:57;27.00;67.10
11812;DHT22;5963;50.184;9.162;2023-06-14T14:03:29;27.20;67.50
11812;DHT22;5963;50.184;9.162;2023-06-14T14:06:00;27.40;66.30
11812;DHT22;5963;50.184;9.162;2023-06-14T14:08:31;27.30;66.80
11812;DHT22;5963;50.184;9.162;2023-06-14T14:11:00;26.80;67.30
11812;DHT22;5963;50.184;9.162;2023-06-14T14:13:30;26.40;65.90
11812;DHT22;5963;50.184;9.162;2023-06-14T14:16:07;26.00;66.90
11812;DHT22;5963;50.184;9.162;2023-06-14T14:18:39;26.10;66.60
11812;DHT22;5963;50.184;9.162;2023-06-14T14:21:07;25.90;66.90
11812;DHT22;5963;50.184;9.162;2023-06-14T14:23:37;25.40;67.50
11812;DHT22;5963;50.184;9.162;2023-06-14T14:26:09;25.00;68.60
11812;DHT22;5963;50.184;9.162;2023-06-14T14:28:39;25.20;69.50
11812;DHT22;5963;50.184;9.162;2023-06-14T14:31:09;24.80;68.90
11812;DHT22;5963;50.184;9.162;2023-06-14T14:33:40;24.70;70.50
11812;DHT22;5963;50.184;9.162;2023-06-14T14:36:13;25.10;70.30
11812;DHT22;5963;50.184;9.162;2023-06-14T14:38:44;25.10;69.80
11812;DHT22;5963;50.184;9.162;2023-06-14T14:41:16;25.60;68.50
11812;DHT22;5963;50.184;9.162;2023-06-14T14:43:45;26.20;67.30
11812;DHT22;5963;50.184;9.162;2023-06-14T14:46:16;26.40;65.50
11812;DHT22;5963;50.184;9.162;2023-06-14T14:48:47;26.90;66.80
11812;DHT22;5963;50.184;9.162;2023-06-14T14:51:17;27.10;66.50
11812;DHT22;5963;50.184;9.162;2023-06-14T14:53:47;25.90;68.00
11812;DHT22;5963;50.184;9.162;2023-06-14T14:56:16;25.50;68.10
11812;DHT22;5963;50.184;9.162;2023-06-14T14:58:51;25.40;69.70
11812;DHT22;5963;50.184;9.162;2023-06-14T15:01:19;25.40;68.90
11812;DHT22;5963;50.184;9.162;2023-06-14T15:03:51;25.10;68.40
11812;DHT22;5963;50.184;9.162;2023-06-14T15:06:27;25.10;69.70
11812;DHT22;5963;50.184;9.162;2023-06-14T15:08:57;25.10;68.30
11812;DHT22;5963;50.184;9.162;2023-06-14T15:11:27;25.10;68.60
11812;DHT22;5963;50.184;9.162;2023-06-14T15:13:57;25.20;68.30
11812;DHT22;5963;50.184;9.162;2023-06-14T15:16:29;24.70;68.20
11812;DHT22;5963;50.184;9.162;2023-06-14T15:19:04;24.80;68.70
11812;DHT22;5963;50.184;9.162;2023-06-14T15:21:34;25.00;69.20
11812;DHT22;5963;50.184;9.162;2023-06-14T15:24:04;25.30;68.60
11812;DHT22;5963;50.184;9.162;2023-06-14T15:26:34;25.70;67.40
11812;DHT22;5963;50.184;9.162;2023-06-14T15:29:04;25.90;67.90
11812;DHT22;5963;50.184;9.162;2023-06-14T15:31:34;25.90;68.60
11812;DHT22;5963;50.184;9.162;2023-06-14T15:34:05;26.40;68.70
11812;DHT22;5963;50.184;9.162;2023-06-14T15:36:37;26.70;68.10
11812;DHT22;5963;50.184;9.162;2023-06-14T15:39:07;26.60;67.90
11812;DHT22;5963;50.184;9.162;2023-06-14T15:41:37;26.30;67.50
11812;DHT22;5963;50.184;9.162;2023-06-14T15:44:07;26.20;68.00
11812;DHT22;5963;50.184;9.162;2023-06-14T15:46:38;26.50;67.70
11812;DHT22;5963;50.184;9.162;2023-06-14T15:49:11;25.90;67.40
11812;DHT22;5963;50.184;9.162;2023-06-14T15:51:43;25.80;67.10
11812;DHT22;5963;50.184;9.162;2023-06-14T15:54:13;25.70;66.80
11812;DHT22;5963;50.184;9.162;2023-06-14T15:56:43;25.60;66.70
11812;DHT22;5963;50.184;9.162;2023-06-14T15:59:13;25.30;67.40
11812;DHT22;5963;50.184;9.162;2023-06-14T16:01:43;25.40;66.90
11812;DHT22;5963;50.184;9.162;2023-06-14T16:04:15;25.40;66.80
11812;DHT22;5963;50.184;9.162;2023-06-14T16:06:45;25.50;67.40
11812;DHT22;5963;50.184;9.162;2023-06-14T16:09:15;25.60;66.90
11812;DHT22;5963;50.184;9.162;2023-06-14T16:11:45;25.30;67.90